sensor_id;sensor_type;location;lat;lon;timestamp;pressure;altitude;pressure_sealevel;temperature;humidity
37856;BME280;23694;43.274;26.924;2022-07-15T00:00:48;98831.97;;;21.13;48.70
37856;BME280;23694;43.274;26.924;2022-07-15T00:03:14;98837.59;;;21.18;48.53
37856;BME280;23694;43.274;26.924;2022-07-15T00:05:41;98831.44;;;21.18;48.35
37856;BME280;23694;43.274;26.924;2022-07-15T00:08:08;98834.63;;;21.13;48.76
37856;BME280;23694;43.274;26.924;2022-07-15T00:10:34;98841.28;;;21.17;48.70
37856;BME280;23694;43.274;26.924;2022-07-15T00:13:01;98844.09;;;21.24;48.63
37856;BME280;23694;43.274;26.924;2022-07-15T00:15:31;98844.22;;;21.31;48.02
37856;BME280;23694;43.274;26.924;2022-07-15T00:17:58;98835.22;;;21.32;47.93
37856;BME280;23694;43.274;26.924;2022-07-15T00:20:28;98834.44;;;21.23;48.58
37856;BME280;23694;43.274;26.924;2022-07-15T00:23:01;98835.94;;;21.17;48.85
37856;BME280;23694;43.274;26.924;2022-07-15T00:25:27;98836.31;;;21.14;48.58
37856;BME280;23694;43.274;26.924;2022-07-15T00:27:59;98842.47;;;21.15;48.60
37856;BME280;23694;43.274;26.924;2022-07-15T00:30:34;98831.84;;;21.07;49.29
37856;BME280;23694;43.274;26.924;2022-07-15T00:33:01;98823.03;;;21.06;49.11
37856;BME280;23694;43.274;26.924;2022-07-15T00:35:29;98825.69;;;21.06;48.73
37856;BME280;23694;43.274;26.924;2022-07-15T00:37:55;98827.03;;;21.02;48.92
37856;BME280;23694;43.274;26.924;2022-07-15T00:40:21;98823.84;;;21.07;49.05
37856;BME280;23694;43.274;26.924;2022-07-15T00:42:47;98825.16;;;21.11;49.09
37856;BME280;23694;43.274;26.924;2022-07-15T00:45:16;98810.38;;;21.08;48.71
37856;BME280;23694;43.274;26.924;2022-07-15T00:48:01;98815.69;;;21.08;49.02
37856;BME280;23694;43.274;26.924;2022-07-15T00:50:29;98812.38;;;21.06;48.80
37856;BME280;23694;43.274;26.924;2022-07-15T00:53:00;98814.09;;;20.99;48.85
37856;BME280;23694;43.274;26.924;2022-07-15T00:55:30;98815.25;;;20.97;48.70
37856;BME280;23694;43.274;26.924;2022-07-15T00:58:01;98815.78;;;20.92;48.90
37856;BME280;23694;43.274;26.924;2022-07-15T01:00:28;98814.13;;;20.91;48.67
37856;BME280;23694;43.274;26.924;2022-07-15T01:02:55;98814.47;;;20.88;48.88
37856;BME280;23694;43.274;26.924;2022-07-15T01:05:23;98803.00;;;20.87;49.12
37856;BME280;23694;43.274;26.924;2022-07-15T01:07:50;98801.34;;;20.86;48.78
37856;BME280;23694;43.274;26.924;2022-07-15T01:10:17;98806.13;;;20.91;49.01
37856;BME280;23694;43.274;26.924;2022-07-15T01:12:46;98801.28;;;20.95;48.56
37856;BME280;23694;43.274;26.924;2022-07-15T01:15:12;98799.16;;;20.90;48.99
37856;BME280;23694;43.274;26.924;2022-07-15T01:17:39;98795.00;;;20.79;49.11
37856;BME280;23694;43.274;26.924;2022-07-15T01:20:06;98796.19;;;20.77;49.11
37856;BME280;23694;43.274;26.924;2022-07-15T01:22:32;98797.84;;;20.78;49.12
37856;BME280;23694;43.274;26.924;2022-07-15T01:24:58;98799.50;;;20.79;48.85
37856;BME280;23694;43.274;26.924;2022-07-15T01:27:25;98796.09;;;20.62;49.24
37856;BME280;23694;43.274;26.924;2022-07-15T01:29:52;98794.59;;;20.60;49.38
37856;BME280;23694;43.274;26.924;2022-07-15T01:32:18;98797.44;;;20.58;49.42
37856;BME280;23694;43.274;26.924;2022-07-15T01:34:44;98795.94;;;20.55;49.64
37856;BME280;23694;43.274;26.924;2022-07-15T01:37:15;98794.16;;;20.48;49.59
37856;BME280;23694;43.274;26.924;2022-07-15T01:39:42;98793.28;;;20.55;49.48
37856;BME280;23694;43.274;26.924;2022-07-15T01:42:08;98793.41;;;20.62;49.33
37856;BME280;23694;43.274;26.924;2022-07-15T01:44:34;98787.78;;;20.57;49.29
37856;BME280;23694;43.274;26.924;2022-07-15T01:47:00;98786.00;;;20.49;49.61
37856;BME280;23694;43.274;26.924;2022-07-15T01:49:26;98788.34;;;20.44;49.74
37856;BME280;23694;43.274;26.924;2022-07-15T01:51:56;98787.50;;;20.36;49.91
37856;BME280;23694;43.274;26.924;2022-07-15T01:54:24;98786.19;;;20.32;50.24
37856;BME280;23694;43.274;26.924;2022-07-15T01:56:51;98788.19;;;20.30;50.03
37856;BME280;23694;43.274;26.924;2022-07-15T01:59:18;98786.34;;;20.30;50.25
37856;BME280;23694;43.274;26.924;2022-07-15T02:01:45;98790.69;;;20.07;50.84
37856;BME280;23694;43.274;26.924;2022-07-15T02:04:11;98793.03;;;20.10;50.45
37856;BME280;23694;43.274;26.924;2022-07-15T02:06:39;98788.19;;;20.13;50.42
37856;BME280;23694;43.274;26.924;2022-07-15T02:09:06;98785.72;;;20.20;50.13
37856;BME280;23694;43.274;26.924;2022-07-15T02:11:32;98789.72;;;20.16;50.32
37856;BME280;23694;43.274;26.924;2022-07-15T02:13:59;98796.19;;;20.05;50.49
37856;BME280;23694;43.274;26.924;2022-07-15T02:16:25;98788.72;;;20.01;50.76
37856;BME280;23694;43.274;26.924;2022-07-15T02:18:52;98791.19;;;20.10;50.45
37856;BME280;23694;43.274;26.924;2022-07-15T02:21:19;98789.72;;;20.16;50.50
37856;BME280;23694;43.274;26.924;2022-07-15T02:23:45;98790.53;;;20.08;50.63
37856;BME280;23694;43.274;26.924;2022-07-15T02:26:12;98779.06;;;20.08;50.70
37856;BME280;23694;43.274;26.924;2022-07-15T02:28:38;98787.03;;;20.08;50.73
37856;BME280;23694;43.274;26.924;2022-07-15T02:31:05;98793.34;;;20.07;50.48
37856;BME280;23694;43.274;26.924;2022-07-15T02:33:31;98783.88;;;20.04;50.54
37856;BME280;23694;43.274;26.924;2022-07-15T02:35:58;98787.53;;;20.03;50.62
37856;BME280;23694;43.274;26.924;2022-07-15T02:38:24;98793.53;;;20.05;50.43
37856;BME280;23694;43.274;26.924;2022-07-15T02:40:50;98788.69;;;20.09;50.37
37856;BME280;23694;43.274;26.924;2022-07-15T02:43:16;98788.88;;;20.07;50.35
37856;BME280;23694;43.274;26.924;2022-07-15T02:45:42;98789.34;;;20.11;50.15
37856;BME280;23694;43.274;26.924;2022-07-15T02:48:09;98788.03;;;20.15;50.31
37856;BME280;23694;43.274;26.924;2022-07-15T02:50:35;98786.38;;;20.14;50.12
37856;BME280;23694;43.274;26.924;2022-07-15T02:53:03;98789.03;;;20.14;50.22
37856;BME280;23694;43.274;26.924;2022-07-15T02:55:29;98788.19;;;20.13;50.09
37856;BME280;23694;43.274;26.924;2022-07-15T02:57:56;98781.56;;;20.09;49.97
37856;BME280;23694;43.274;26.924;2022-07-15T03:00:22;98786.88;;;20.09;50.03
37856;BME280;23694;43.274;26.924;2022-07-15T03:02:48;98783.03;;;20.12;50.16
37856;BME280;23694;43.274;26.924;2022-07-15T03:05:15;98794.53;;;20.20;49.72
37856;BME280;23694;43.274;26.924;2022-07-15T03:07:43;98791.00;;;20.36;49.51
37856;BME280;23694;43.274;26.924;2022-07-15T03:10:10;98788.97;;;20.54;49.39
37856;BME280;23694;43.274;26.924;2022-07-15T03:12:37;98783.88;;;20.76;48.42
37856;BME280;23694;43.274;26.924;2022-07-15T03:15:04;98789.41;;;21.05;47.87
37856;BME280;23694;43.274;26.924;2022-07-15T03:17:30;98783.50;;;21.26;47.26
37856;BME280;23694;43.274;26.924;2022-07-15T03:19:56;98785.19;;;21.50;46.44
37856;BME280;23694;43.274;26.924;2022-07-15T03:22:23;98786.63;;;21.75;46.07
37856;BME280;23694;43.274;26.924;2022-07-15T03:24:50;98788.59;;;21.81;45.45
37856;BME280;23694;43.274;26.924;2022-07-15T03:27:16;98788.66;;;21.73;45.62
37856;BME280;23694;43.274;26.924;2022-07-15T03:29:43;98789.38;;;21.67;45.82
37856;BME280;23694;43.274;26.924;2022-07-15T03:32:10;98787.41;;;21.61;46.18
37856;BME280;23694;43.274;26.924;2022-07-15T03:34:37;98792.28;;;21.58;46.37
37856;BME280;23694;43.274;26.924;2022-07-15T03:37:03;98793.28;;;21.57;46.20
37856;BME280;23694;43.274;26.924;2022-07-15T03:39:29;98791.28;;;21.59;46.24
37856;BME280;23694;43.274;26.924;2022-07-15T03:41:55;98787.59;;;21.60;46.76
37856;BME280;23694;43.274;26.924;2022-07-15T03:44:21;98791.75;;;21.62;46.62
37856;BME280;23694;43.274;26.924;2022-07-15T03:46:47;98795.78;;;21.58;46.94
37856;BME280;23694;43.274;26.924;2022-07-15T03:49:14;98790.44;;;21.58;46.60
37856;BME280;23694;43.274;26.924;2022-07-15T03:51:40;98795.78;;;21.58;46.81
37856;BME280;23694;43.274;26.924;2022-07-15T03:54:07;98790.75;;;21.63;47.27
37856;BME280;23694;43.274;26.924;2022-07-15T03:56:34;98791.84;;;21.69;46.92
37856;BME280;23694;43.274;26.924;2022-07-15T03:59:00;98789.84;;;21.71;47.21
37856;BME280;23694;43.274;26.924;2022-07-15T04:01:26;98790.31;;;21.74;47.33
37856;BME280;23694;43.274;26.924;2022-07-15T04:03:53;98786.91;;;21.80;47.02
37856;BME280;23694;43.274;26.924;2022-07-15T04:06:20;98788.03;;;21.86;47.39
37856;BME280;23694;43.274;26.924;2022-07-15T04:08:47;98789.25;;;21.98;47.54
37856;BME280;23694;43.274;26.924;2022-07-15T04:11:15;98794.84;;;22.11;47.46
37856;BME280;23694;43.274;26.924;2022-07-15T04:13:42;98794.41;;;22.23;47.52
37856;BME280;23694;43.274;26.924;2022-07-15T04:16:09;98797.81;;;22.31;47.04
37856;BME280;23694;43.274;26.924;2022-07-15T04:18:37;98802.25;;;22.54;46.46
37856;BME280;23694;43.274;26.924;2022-07-15T04:21:03;98804.81;;;22.62;46.17
37856;BME280;23694;43.274;26.924;2022-07-15T04:23:30;98804.97;;;22.75;45.90
37856;BME280;23694;43.274;26.924;2022-07-15T04:25:56;98801.31;;;22.76;46.21
37856;BME280;23694;43.274;26.924;2022-07-15T04:28:22;98802.16;;;22.91;46.15
37856;BME280;23694;43.274;26.924;2022-07-15T04:30:49;98805.53;;;23.36;45.06
37856;BME280;23694;43.274;26.924;2022-07-15T04:33:15;98806.63;;;24.61;42.46
37856;BME280;23694;43.274;26.924;2022-07-15T04:35:42;98802.97;;;25.98;39.14
37856;BME280;23694;43.274;26.924;2022-07-15T04:38:08;98801.75;;;27.11;37.01
37856;BME280;23694;43.274;26.924;2022-07-15T04:40:35;98807.25;;;28.24;34.95
37856;BME280;23694;43.274;26.924;2022-07-15T04:43:01;98800.13;;;29.39;32.95
37856;BME280;23694;43.274;26.924;2022-07-15T04:45:29;98801.88;;;30.28;30.95
37856;BME280;23694;43.274;26.924;2022-07-15T04:47:55;98803.06;;;30.68;30.30
37856;BME280;23694;43.274;26.924;2022-07-15T04:50:21;98797.06;;;31.29;29.76
37856;BME280;23694;43.274;26.924;2022-07-15T04:53:06;98804.63;;;32.23;28.10
37856;BME280;23694;43.274;26.924;2022-07-15T04:55:32;98797.03;;;32.97;27.04
37856;BME280;23694;43.274;26.924;2022-07-15T04:57:59;98800.88;;;33.23;26.27
37856;BME280;23694;43.274;26.924;2022-07-15T05:00:25;98801.63;;;33.18;26.47
37856;BME280;23694;43.274;26.924;2022-07-15T05:02:52;98795.53;;;32.84;26.45
37856;BME280;23694;43.274;26.924;2022-07-15T05:05:19;98800.84;;;32.57;27.44
37856;BME280;23694;43.274;26.924;2022-07-15T05:07:45;98804.63;;;32.23;28.08
37856;BME280;23694;43.274;26.924;2022-07-15T05:10:12;98803.06;;;31.48;29.35
37856;BME280;23694;43.274;26.924;2022-07-15T05:12:39;98807.66;;;31.07;29.74
37856;BME280;23694;43.274;26.924;2022-07-15T05:15:06;98798.44;;;30.91;30.06
37856;BME280;23694;43.274;26.924;2022-07-15T05:17:33;98795.53;;;30.58;30.74
37856;BME280;23694;43.274;26.924;2022-07-15T05:20:00;98790.94;;;29.47;33.30
37856;BME280;23694;43.274;26.924;2022-07-15T05:22:27;98794.81;;;29.51;33.28
37856;BME280;23694;43.274;26.924;2022-07-15T05:24:53;98804.72;;;28.90;34.13
37856;BME280;23694;43.274;26.924;2022-07-15T05:27:19;98804.88;;;28.52;35.08
37856;BME280;23694;43.274;26.924;2022-07-15T05:29:47;98802.53;;;27.88;36.28
37856;BME280;23694;43.274;26.924;2022-07-15T05:32:13;98805.72;;;27.02;37.13
37856;BME280;23694;43.274;26.924;2022-07-15T05:34:39;98807.31;;;26.05;39.06
37856;BME280;23694;43.274;26.924;2022-07-15T05:37:05;98808.75;;;26.21;38.93
37856;BME280;23694;43.274;26.924;2022-07-15T05:39:32;98798.66;;;26.03;39.36
37856;BME280;23694;43.274;26.924;2022-07-15T05:41:58;98794.13;;;26.04;39.26
37856;BME280;23694;43.274;26.924;2022-07-15T05:44:24;98793.88;;;26.18;39.32
37856;BME280;23694;43.274;26.924;2022-07-15T05:46:51;98801.75;;;26.33;39.43
37856;BME280;23694;43.274;26.924;2022-07-15T05:49:17;98802.78;;;26.19;39.47
37856;BME280;23694;43.274;26.924;2022-07-15T05:51:44;98793.63;;;25.54;40.21
37856;BME280;23694;43.274;26.924;2022-07-15T05:54:11;98794.03;;;25.44;41.20
37856;BME280;23694;43.274;26.924;2022-07-15T05:56:43;98798.56;;;25.44;41.51
37856;BME280;23694;43.274;26.924;2022-07-15T05:59:10;98794.78;;;25.25;40.74
37856;BME280;23694;43.274;26.924;2022-07-15T06:01:36;98790.91;;;24.86;42.07
37856;BME280;23694;43.274;26.924;2022-07-15T06:04:02;98789.16;;;25.07;42.08
37856;BME280;23694;43.274;26.924;2022-07-15T06:06:28;98792.13;;;25.32;41.38
37856;BME280;23694;43.274;26.924;2022-07-15T06:08:55;98790.75;;;25.62;41.08
37856;BME280;23694;43.274;26.924;2022-07-15T06:11:22;98791.41;;;25.97;40.10
37856;BME280;23694;43.274;26.924;2022-07-15T06:13:48;98790.16;;;25.80;40.78
37856;BME280;23694;43.274;26.924;2022-07-15T06:16:14;98788.94;;;25.69;41.18
37856;BME280;23694;43.274;26.924;2022-07-15T06:18:41;98787.28;;;25.88;40.09
37856;BME280;23694;43.274;26.924;2022-07-15T06:21:08;98791.81;;;25.87;39.99
37856;BME280;23694;43.274;26.924;2022-07-15T06:23:34;98787.06;;;25.89;40.11
37856;BME280;23694;43.274;26.924;2022-07-15T06:26:00;98780.69;;;25.90;40.18
37856;BME280;23694;43.274;26.924;2022-07-15T06:28:29;98786.47;;;25.74;41.25
37856;BME280;23694;43.274;26.924;2022-07-15T06:30:56;98779.88;;;26.10;41.07
37856;BME280;23694;43.274;26.924;2022-07-15T06:33:22;98788.50;;;26.25;40.59
37856;BME280;23694;43.274;26.924;2022-07-15T06:35:50;98789.13;;;26.40;40.60
37856;BME280;23694;43.274;26.924;2022-07-15T06:38:16;98778.91;;;26.82;40.26
37856;BME280;23694;43.274;26.924;2022-07-15T06:40:42;98776.44;;;26.74;40.72
37856;BME280;23694;43.274;26.924;2022-07-15T06:43:08;98777.31;;;26.54;41.58
37856;BME280;23694;43.274;26.924;2022-07-15T06:45:35;98775.63;;;26.73;41.31
37856;BME280;23694;43.274;26.924;2022-07-15T06:48:01;98771.88;;;27.26;40.09
37856;BME280;23694;43.274;26.924;2022-07-15T06:50:27;98776.47;;;27.19;40.42
37856;BME280;23694;43.274;26.924;2022-07-15T06:52:53;98775.06;;;27.09;40.15
37856;BME280;23694;43.274;26.924;2022-07-15T06:55:20;98770.34;;;27.43;40.15
37856;BME280;23694;43.274;26.924;2022-07-15T06:57:46;98769.56;;;27.36;40.55
37856;BME280;23694;43.274;26.924;2022-07-15T07:00:13;98770.78;;;26.95;41.24
37856;BME280;23694;43.274;26.924;2022-07-15T07:02:41;98768.97;;;27.34;40.71
37856;BME280;23694;43.274;26.924;2022-07-15T07:05:07;98767.81;;;27.48;40.24
37856;BME280;23694;43.274;26.924;2022-07-15T07:07:34;98774.16;;;27.60;40.18
37856;BME280;23694;43.274;26.924;2022-07-15T07:10:01;98777.38;;;27.75;39.87
37856;BME280;23694;43.274;26.924;2022-07-15T07:12:27;98769.78;;;27.66;39.47
37856;BME280;23694;43.274;26.924;2022-07-15T07:14:54;98772.09;;;27.62;39.54
37856;BME280;23694;43.274;26.924;2022-07-15T07:17:20;98776.72;;;27.10;40.71
37856;BME280;23694;43.274;26.924;2022-07-15T07:19:46;98771.16;;;27.05;40.75
37856;BME280;23694;43.274;26.924;2022-07-15T07:22:12;98771.94;;;26.68;41.63
37856;BME280;23694;43.274;26.924;2022-07-15T07:24:38;98763.22;;;26.66;41.81
37856;BME280;23694;43.274;26.924;2022-07-15T07:27:05;98773.00;;;27.11;41.05
37856;BME280;23694;43.274;26.924;2022-07-15T07:29:31;98762.53;;;27.35;40.53
37856;BME280;23694;43.274;26.924;2022-07-15T07:31:58;98764.50;;;27.14;40.43
37856;BME280;23694;43.274;26.924;2022-07-15T07:34:24;98769.63;;;27.61;40.04
37856;BME280;23694;43.274;26.924;2022-07-15T07:36:50;98763.59;;;27.27;40.13
37856;BME280;23694;43.274;26.924;2022-07-15T07:39:16;98760.63;;;27.04;41.10
37856;BME280;23694;43.274;26.924;2022-07-15T07:41:42;98762.78;;;27.58;39.82
37856;BME280;23694;43.274;26.924;2022-07-15T07:44:08;98770.59;;;27.98;39.23
37856;BME280;23694;43.274;26.924;2022-07-15T07:46:35;98762.06;;;28.26;38.02
37856;BME280;23694;43.274;26.924;2022-07-15T07:49:01;98758.78;;;28.24;38.33
37856;BME280;23694;43.274;26.924;2022-07-15T07:51:27;98765.22;;;28.41;38.50
37856;BME280;23694;43.274;26.924;2022-07-15T07:53:53;98766.44;;;28.20;37.05
37856;BME280;23694;43.274;26.924;2022-07-15T07:56:19;98764.03;;;28.12;38.10
37856;BME280;23694;43.274;26.924;2022-07-15T07:58:46;98767.69;;;28.61;36.77
37856;BME280;23694;43.274;26.924;2022-07-15T08:01:12;98767.94;;;28.96;36.33
37856;BME280;23694;43.274;26.924;2022-07-15T08:03:38;98756.97;;;29.39;34.99
37856;BME280;23694;43.274;26.924;2022-07-15T08:06:04;98764.63;;;28.76;36.60
37856;BME280;23694;43.274;26.924;2022-07-15T08:08:30;98758.34;;;29.00;36.05
37856;BME280;23694;43.274;26.924;2022-07-15T08:10:57;98757.56;;;29.41;34.92
37856;BME280;23694;43.274;26.924;2022-07-15T08:13:25;98759.19;;;29.30;34.26
37856;BME280;23694;43.274;26.924;2022-07-15T08:15:52;98753.19;;;29.28;34.73
37856;BME280;23694;43.274;26.924;2022-07-15T08:18:23;98748.91;;;28.91;32.80
37856;BME280;23694;43.274;26.924;2022-07-15T08:20:49;98756.25;;;28.65;34.25
37856;BME280;23694;43.274;26.924;2022-07-15T08:23:15;98749.06;;;28.96;33.75
37856;BME280;23694;43.274;26.924;2022-07-15T08:25:48;98754.97;;;29.34;31.78
37856;BME280;23694;43.274;26.924;2022-07-15T08:28:15;98756.03;;;29.33;32.12
37856;BME280;23694;43.274;26.924;2022-07-15T08:30:41;98753.81;;;29.12;29.56
37856;BME280;23694;43.274;26.924;2022-07-15T08:33:07;98753.63;;;29.44;32.10
37856;BME280;23694;43.274;26.924;2022-07-15T08:35:33;98745.81;;;29.77;30.73
37856;BME280;23694;43.274;26.924;2022-07-15T08:38:05;98749.59;;;30.00;27.00
37856;BME280;23694;43.274;26.924;2022-07-15T08:40:33;98749.28;;;30.08;26.03
37856;BME280;23694;43.274;26.924;2022-07-15T08:43:00;98749.75;;;30.05;27.70
37856;BME280;23694;43.274;26.924;2022-07-15T08:45:26;98755.38;;;30.15;26.35
37856;BME280;23694;43.274;26.924;2022-07-15T08:47:55;98750.19;;;30.25;27.23
37856;BME280;23694;43.274;26.924;2022-07-15T08:50:23;98751.94;;;30.43;27.69
37856;BME280;23694;43.274;26.924;2022-07-15T08:52:49;98743.63;;;30.21;28.39
37856;BME280;23694;43.274;26.924;2022-07-15T08:55:17;98745.28;;;30.10;28.58
37856;BME280;23694;43.274;26.924;2022-07-15T08:57:48;98744.56;;;30.15;28.32
37856;BME280;23694;43.274;26.924;2022-07-15T09:00:15;98743.16;;;30.36;27.54
37856;BME280;23694;43.274;26.924;2022-07-15T09:02:42;98744.63;;;30.55;27.53
37856;BME280;23694;43.274;26.924;2022-07-15T09:05:22;98739.28;;;30.32;27.64
37856;BME280;23694;43.274;26.924;2022-07-15T09:08:02;98731.50;;;30.35;27.21
37856;BME280;23694;43.274;26.924;2022-07-15T09:11:07;98731.88;;;30.27;26.81
37856;BME280;23694;43.274;26.924;2022-07-15T09:13:36;98729.31;;;30.09;28.05
37856;BME280;23694;43.274;26.924;2022-07-15T09:16:12;98728.81;;;30.35;26.90
37856;BME280;23694;43.274;26.924;2022-07-15T09:18:45;98731.22;;;30.83;26.34
37856;BME280;23694;43.274;26.924;2022-07-15T09:23:45;98726.97;;;31.16;25.98
37856;BME280;23694;43.274;26.924;2022-07-15T09:26:27;98720.53;;;31.05;25.90
37856;BME280;23694;43.274;26.924;2022-07-15T09:28:55;98722.69;;;31.65;24.64
37856;BME280;23694;43.274;26.924;2022-07-15T09:31:36;98716.38;;;32.10;24.13
37856;BME280;23694;43.274;26.924;2022-07-15T09:34:23;98711.88;;;31.82;24.49
37856;BME280;23694;43.274;26.924;2022-07-15T09:36:52;98715.31;;;31.61;24.78
37856;BME280;23694;43.274;26.924;2022-07-15T09:39:21;98709.81;;;31.56;25.13
37856;BME280;23694;43.274;26.924;2022-07-15T09:41:48;98710.91;;;31.71;24.77
37856;BME280;23694;43.274;26.924;2022-07-15T09:44:22;98704.41;;;31.39;24.94
37856;BME280;23694;43.274;26.924;2022-07-15T09:46:54;98705.50;;;31.88;24.74
37856;BME280;23694;43.274;26.924;2022-07-15T09:54:28;98692.38;;;31.18;24.57
37856;BME280;23694;43.274;26.924;2022-07-15T09:57:03;98693.25;;;31.52;24.84
37856;BME280;23694;43.274;26.924;2022-07-15T09:59:30;98687.38;;;31.89;24.81
37856;BME280;23694;43.274;26.924;2022-07-15T10:01:57;98688.53;;;32.14;23.54
37856;BME280;23694;43.274;26.924;2022-07-15T10:04:26;98689.03;;;32.28;23.39
37856;BME280;23694;43.274;26.924;2022-07-15T10:06:54;98677.75;;;32.80;23.55
37856;BME280;23694;43.274;26.924;2022-07-15T10:09:27;98675.66;;;33.14;22.78
37856;BME280;23694;43.274;26.924;2022-07-15T10:11:55;98668.34;;;33.42;21.16
37856;BME280;23694;43.274;26.924;2022-07-15T10:20:27;98662.31;;;33.34;21.36
37856;BME280;23694;43.274;26.924;2022-07-15T10:31:19;98654.88;;;33.25;21.90
37856;BME280;23694;43.274;26.924;2022-07-15T10:39:11;98662.56;;;33.06;22.49
37856;BME280;23694;43.274;26.924;2022-07-15T10:44:19;98662.88;;;32.83;22.13
37856;BME280;23694;43.274;26.924;2022-07-15T10:46:46;98661.03;;;32.88;22.72
37856;BME280;23694;43.274;26.924;2022-07-15T10:56:46;98663.63;;;33.05;23.28
37856;BME280;23694;43.274;26.924;2022-07-15T10:59:21;98665.88;;;33.13;23.04
37856;BME280;23694;43.274;26.924;2022-07-15T11:01:49;98660.78;;;33.17;22.48
37856;BME280;23694;43.274;26.924;2022-07-15T11:04:19;98652.97;;;33.25;22.33
37856;BME280;23694;43.274;26.924;2022-07-15T11:15:00;98653.06;;;33.30;21.81
37856;BME280;23694;43.274;26.924;2022-07-15T11:20:02;98654.53;;;33.48;21.39
37856;BME280;23694;43.274;26.924;2022-07-15T11:22:36;98647.28;;;33.59;21.85
37856;BME280;23694;43.274;26.924;2022-07-15T11:25:03;98653.03;;;33.67;21.29
37856;BME280;23694;43.274;26.924;2022-07-15T11:27:32;98654.44;;;33.75;21.09
37856;BME280;23694;43.274;26.924;2022-07-15T11:30:01;98645.94;;;33.98;21.52
37856;BME280;23694;43.274;26.924;2022-07-15T11:32:31;98647.78;;;34.35;20.71
37856;BME280;23694;43.274;26.924;2022-07-15T11:34:59;98643.78;;;34.58;19.44
37856;BME280;23694;43.274;26.924;2022-07-15T11:37:31;98631.56;;;34.55;19.80
37856;BME280;23694;43.274;26.924;2022-07-15T11:42:32;98639.38;;;34.42;20.03
37856;BME280;23694;43.274;26.924;2022-07-15T11:45:37;98632.47;;;34.86;20.06
37856;BME280;23694;43.274;26.924;2022-07-15T11:48:05;98633.00;;;34.99;19.20
37856;BME280;23694;43.274;26.924;2022-07-15T11:50:36;98629.38;;;34.57;19.48
37856;BME280;23694;43.274;26.924;2022-07-15T11:53:14;98628.66;;;33.78;20.22
37856;BME280;23694;43.274;26.924;2022-07-15T11:55:59;98623.84;;;34.37;19.92
37856;BME280;23694;43.274;26.924;2022-07-15T11:58:31;98618.00;;;34.81;20.35
37856;BME280;23694;43.274;26.924;2022-07-15T12:00:59;98617.22;;;35.06;20.52
37856;BME280;23694;43.274;26.924;2022-07-15T12:03:34;98618.91;;;35.47;19.61
37856;BME280;23694;43.274;26.924;2022-07-15T12:08:40;98619.69;;;35.63;19.49
37856;BME280;23694;43.274;26.924;2022-07-15T12:11:27;98612.63;;;35.57;19.40
37856;BME280;23694;43.274;26.924;2022-07-15T12:16:30;98612.09;;;35.35;19.02
37856;BME280;23694;43.274;26.924;2022-07-15T12:19:08;98605.25;;;34.91;19.06
37856;BME280;23694;43.274;26.924;2022-07-15T12:21:38;98603.19;;;34.41;20.32
37856;BME280;23694;43.274;26.924;2022-07-15T12:24:13;98603.34;;;34.09;20.44
37856;BME280;23694;43.274;26.924;2022-07-15T12:29:11;98588.31;;;33.49;20.76
37856;BME280;23694;43.274;26.924;2022-07-15T12:31:39;98596.97;;;33.46;21.76
37856;BME280;23694;43.274;26.924;2022-07-15T12:34:06;98590.56;;;33.62;20.52
37856;BME280;23694;43.274;26.924;2022-07-15T12:36:33;98595.34;;;33.45;21.14
37856;BME280;23694;43.274;26.924;2022-07-15T12:41:37;98585.88;;;33.53;21.80
37856;BME280;23694;43.274;26.924;2022-07-15T12:44:05;98591.25;;;33.16;21.15
37856;BME280;23694;43.274;26.924;2022-07-15T12:49:38;98586.06;;;33.09;21.30
37856;BME280;23694;43.274;26.924;2022-07-15T12:54:49;98589.75;;;32.71;21.83
37856;BME280;23694;43.274;26.924;2022-07-15T12:57:27;98584.13;;;33.04;21.64
37856;BME280;23694;43.274;26.924;2022-07-15T12:59:57;98586.81;;;33.31;21.79
37856;BME280;23694;43.274;26.924;2022-07-15T13:02:24;98592.38;;;33.52;21.61
37856;BME280;23694;43.274;26.924;2022-07-15T13:04:51;98596.81;;;33.63;21.80
37856;BME280;23694;43.274;26.924;2022-07-15T13:07:18;98592.75;;;33.65;21.65
37856;BME280;23694;43.274;26.924;2022-07-15T13:09:45;98595.13;;;33.57;21.23
37856;BME280;23694;43.274;26.924;2022-07-15T13:12:12;98592.34;;;33.47;21.47
37856;BME280;23694;43.274;26.924;2022-07-15T13:14:39;98592.00;;;33.33;21.19
37856;BME280;23694;43.274;26.924;2022-07-15T13:17:07;98591.66;;;33.29;21.27
37856;BME280;23694;43.274;26.924;2022-07-15T13:19:33;98587.41;;;33.38;21.68
37856;BME280;23694;43.274;26.924;2022-07-15T13:22:00;98588.81;;;33.46;21.66
37856;BME280;23694;43.274;26.924;2022-07-15T13:24:27;98590.41;;;33.37;22.54
37856;BME280;23694;43.274;26.924;2022-07-15T13:26:53;98584.47;;;33.45;22.83
37856;BME280;23694;43.274;26.924;2022-07-15T13:29:19;98583.72;;;33.55;22.15
37856;BME280;23694;43.274;26.924;2022-07-15T13:31:46;98588.19;;;33.76;21.32
37856;BME280;23694;43.274;26.924;2022-07-15T13:34:12;98577.44;;;33.91;21.34
37856;BME280;23694;43.274;26.924;2022-07-15T13:36:38;98581.81;;;33.97;21.29
37856;BME280;23694;43.274;26.924;2022-07-15T13:39:04;98585.06;;;33.89;20.37
37856;BME280;23694;43.274;26.924;2022-07-15T13:41:31;98576.06;;;33.84;20.21
37856;BME280;23694;43.274;26.924;2022-07-15T13:43:57;98583.25;;;33.68;20.01
37856;BME280;23694;43.274;26.924;2022-07-15T13:46:23;98573.91;;;33.49;20.42
37856;BME280;23694;43.274;26.924;2022-07-15T13:48:49;98581.47;;;33.42;20.64
37856;BME280;23694;43.274;26.924;2022-07-15T13:51:15;98587.28;;;33.23;21.14
37856;BME280;23694;43.274;26.924;2022-07-15T13:53:53;98571.72;;;33.14;20.75
37856;BME280;23694;43.274;26.924;2022-07-15T13:56:20;98576.03;;;33.09;21.49
37856;BME280;23694;43.274;26.924;2022-07-15T13:58:47;98584.16;;;33.09;22.38
37856;BME280;23694;43.274;26.924;2022-07-15T14:01:15;98584.72;;;33.12;22.87